Time;durP1;ratioP1;P1;durP2;ratioP2;P2;SDS_P1;SDS_P2;PMS_P1;PMS_P2;Temp;Humidity;BMP_temperature;BMP_pressure;BME280_temperature;BME280_humidity;BME280_pressure;Samples;Min_cycle;Max_cycle;Signal;HPM_P1;HPM_P2
2022/08/19 00:00:30;;;;;;;10.63;6.95;;;25.20;99.90;;;;;;4997747;28;20544;-75
2022/08/19 00:02:56;;;;;;;8.20;6.22;;;25.10;99.90;;;;;;5000799;28;20234;-73
2022/08/19 00:05:23;;;;;;;7.80;6.75;;;25.10;99.90;;;;;;4996217;28;20280;-74
2022/08/19 00:07:51;;;;;;;9.25;6.68;;;25.10;99.90;;;;;;4995262;28;20612;-74
2022/08/19 00:10:19;;;;;;;9.35;6.05;;;25.10;99.90;;;;;;5007491;28;20222;-74
2022/08/19 00:12:46;;;;;;;12.20;6.60;;;25.10;99.90;;;;;;5005223;28;20218;-74
2022/08/19 00:15:18;;;;;;;12.52;6.53;;;25.10;99.90;;;;;;4998219;28;20711;-75
2022/08/19 00:17:45;;;;;;;9.75;6.55;;;25.10;99.90;;;;;;5004538;28;20219;-74
2022/08/19 00:20:16;;;;;;;10.48;6.65;;;25.00;99.90;;;;;;5006977;28;20206;-74
2022/08/19 00:22:43;;;;;;;7.45;6.05;;;25.00;99.90;;;;;;4992155;28;20224;-74
2022/08/19 00:25:11;;;;;;;8.23;6.85;;;25.00;99.90;;;;;;4993888;28;20258;-74
2022/08/19 00:27:38;;;;;;;10.68;7.10;;;25.00;99.90;;;;;;5005353;28;20204;-74
2022/08/19 00:30:06;;;;;;;8.50;6.40;;;25.00;99.90;;;;;;4992682;28;20216;-74
2022/08/19 00:32:35;;;;;;;10.45;6.68;;;25.00;99.90;;;;;;5005746;28;20211;-74
2022/08/19 00:35:01;;;;;;;8.65;6.90;;;25.00;99.90;;;;;;5004695;28;20207;-74
2022/08/19 00:37:29;;;;;;;11.20;7.05;;;25.00;99.90;;;;;;5000505;28;20223;-74
2022/08/19 00:39:56;;;;;;;8.60;6.70;;;24.90;99.90;;;;;;4993394;28;20223;-73
2022/08/19 00:42:23;;;;;;;10.55;7.38;;;24.90;99.90;;;;;;4992243;28;20617;-74
2022/08/19 00:44:51;;;;;;;10.80;6.80;;;24.90;99.90;;;;;;5000819;28;20243;-74
2022/08/19 00:47:17;;;;;;;9.55;7.68;;;24.80;99.90;;;;;;4991351;28;20211;-75
2022/08/19 00:49:51;;;;;;;9.30;7.32;;;24.80;99.90;;;;;;5006806;28;20572;-74
2022/08/19 00:52:23;;;;;;;11.65;7.15;;;24.80;99.90;;;;;;4995964;28;20573;-74
2022/08/19 00:54:52;;;;;;;9.55;6.50;;;24.80;99.90;;;;;;5005247;28;20659;-74
2022/08/19 00:57:23;;;;;;;7.32;6.18;;;24.80;99.90;;;;;;5014729;28;20276;-73
2022/08/19 00:59:53;;;;;;;13.82;8.45;;;24.70;99.90;;;;;;5000992;28;20208;-73
2022/08/19 01:02:20;;;;;;;12.30;7.82;;;24.70;99.90;;;;;;4995718;28;20239;-73
2022/08/19 01:04:48;;;;;;;8.23;7.10;;;24.70;99.90;;;;;;5007166;28;20649;-74
2022/08/19 01:07:15;;;;;;;10.75;7.97;;;24.60;99.90;;;;;;4998798;28;20207;-74
2022/08/19 01:09:41;;;;;;;10.15;8.38;;;24.60;99.90;;;;;;5004683;28;20222;-73
2022/08/19 01:12:09;;;;;;;16.42;8.38;;;24.60;99.90;;;;;;5011104;28;20681;-74
2022/08/19 01:14:37;;;;;;;15.30;8.13;;;24.60;99.90;;;;;;4995315;28;20576;-74
2022/08/19 01:17:04;;;;;;;8.27;7.47;;;24.60;99.90;;;;;;5011683;28;20226;-73
2022/08/19 01:19:34;;;;;;;8.75;7.78;;;24.50;99.90;;;;;;4998618;28;20212;-73
2022/08/19 01:22:08;;;;;;;9.70;7.30;;;24.50;99.90;;;;;;5014360;28;20558;-74
2022/08/19 01:24:36;;;;;;;14.18;9.07;;;24.00;99.90;;;;;;5004528;28;20624;-74
2022/08/19 01:27:05;;;;;;;9.68;8.68;;;24.40;99.90;;;;;;5012804;28;20211;-73
2022/08/19 01:29:32;;;;;;;9.40;8.27;;;24.40;99.90;;;;;;4998715;28;20215;-74
2022/08/19 01:32:01;;;;;;;11.65;8.05;;;24.40;99.90;;;;;;5010622;28;20215;-74
2022/08/19 01:34:28;;;;;;;11.82;8.50;;;24.40;99.90;;;;;;5012582;28;20503;-74
2022/08/19 01:36:54;;;;;;;10.98;8.32;;;24.40;99.90;;;;;;4995247;28;20231;-74
2022/08/19 01:39:24;;;;;;;12.55;8.52;;;24.40;99.90;;;;;;5008765;28;20230;-74
2022/08/19 01:41:54;;;;;;;11.60;8.30;;;24.40;99.90;;;;;;5007277;28;20212;-74
2022/08/19 01:44:24;;;;;;;11.48;7.65;;;24.40;99.90;;;;;;5005229;28;20208;-74
2022/08/19 01:46:52;;;;;;;13.18;9.85;;;24.30;99.90;;;;;;5000267;28;20234;-74
2022/08/19 01:49:22;;;;;;;15.50;8.07;;;24.30;99.90;;;;;;5003326;28;20669;-74
2022/08/19 01:51:50;;;;;;;9.10;7.95;;;24.30;99.90;;;;;;4995286;28;20471;-74
2022/08/19 01:54:18;;;;;;;12.85;9.43;;;24.30;99.90;;;;;;4995143;28;20203;-73
2022/08/19 01:56:45;;;;;;;13.50;9.18;;;24.30;99.90;;;;;;4996745;28;20232;-74
2022/08/19 01:59:18;;;;;;;10.52;8.32;;;24.30;99.90;;;;;;4995195;28;20619;-74
2022/08/19 02:01:45;;;;;;;12.20;8.52;;;24.20;99.90;;;;;;5006961;28;20867;-74
2022/08/19 02:04:11;;;;;;;11.02;7.90;;;24.20;99.90;;;;;;5001903;28;20245;-73
2022/08/19 02:06:39;;;;;;;11.35;8.93;;;24.10;99.90;;;;;;5000648;28;20204;-74
2022/08/19 02:09:07;;;;;;;10.23;8.85;;;24.10;99.90;;;;;;4995988;28;20214;-73
2022/08/19 02:11:36;;;;;;;11.95;8.73;;;24.00;99.90;;;;;;4993828;28;20239;-73
2022/08/19 02:14:05;;;;;;;8.52;7.65;;;24.00;99.90;;;;;;5006170;28;20204;-73
2022/08/19 02:16:33;;;;;;;14.88;8.88;;;24.00;99.90;;;;;;4996679;28;20220;-74
2022/08/19 02:19:01;;;;;;;10.43;8.25;;;23.90;99.90;;;;;;5012215;28;20661;-72
2022/08/19 02:21:29;;;;;;;11.15;9.07;;;23.80;99.90;;;;;;5013014;28;20247;-73
2022/08/19 02:23:56;;;;;;;14.85;9.63;;;23.80;99.90;;;;;;5009933;28;20211;-72
2022/08/19 02:26:23;;;;;;;11.25;8.27;;;23.80;99.90;;;;;;5002380;28;20203;-72
2022/08/19 02:28:50;;;;;;;11.52;10.25;;;23.70;99.90;;;;;;5008836;28;20691;-72
2022/08/19 02:31:19;;;;;;;15.02;9.82;;;23.60;99.90;;;;;;4999840;28;20203;-73
2022/08/19 02:33:48;;;;;;;16.65;10.35;;;23.60;99.90;;;;;;5013480;28;20219;-74
2022/08/19 02:36:16;;;;;;;12.77;9.07;;;23.60;99.90;;;;;;4997088;28;20556;-74
2022/08/19 02:38:43;;;;;;;13.35;10.32;;;23.50;99.90;;;;;;4993734;28;20196;-73
2022/08/19 02:41:14;;;;;;;12.95;9.43;;;23.50;99.90;;;;;;5003877;28;20210;-73
2022/08/19 02:43:41;;;;;;;11.57;9.05;;;23.50;99.90;;;;;;5010562;28;20732;-73
2022/08/19 02:46:20;;;;;;;15.50;10.10;;;23.50;99.90;;;;;;5011625;28;20219;-73
2022/08/19 02:48:49;;;;;;;12.40;9.13;;;23.40;99.90;;;;;;5010127;28;20230;-73
2022/08/19 02:51:18;;;;;;;11.05;9.25;;;23.40;99.90;;;;;;4998668;28;20671;-72
2022/08/19 02:53:45;;;;;;;10.40;8.07;;;23.40;99.90;;;;;;4998940;28;20210;-72
2022/08/19 02:56:11;;;;;;;16.20;9.68;;;23.30;99.90;;;;;;5008878;28;20247;-73
2022/08/19 02:58:38;;;;;;;10.50;8.95;;;23.40;99.90;;;;;;5009832;28;20216;-73
2022/08/19 03:01:05;;;;;;;11.15;8.82;;;23.30;99.90;;;;;;5001977;28;20219;-73
2022/08/19 03:03:32;;;;;;;15.98;9.68;;;23.30;99.90;;;;;;4993027;28;20208;-73
2022/08/19 03:06:11;;;;;;;11.48;8.98;;;23.30;99.90;;;;;;4993388;28;20246;-73
2022/08/19 03:08:39;;;;;;;13.05;10.20;;;23.30;99.90;;;;;;4992649;28;20617;-73
2022/08/19 03:11:06;;;;;;;10.65;9.15;;;23.20;99.90;;;;;;5002071;28;20223;-73
2022/08/19 03:13:33;;;;;;;12.00;9.38;;;23.30;99.90;;;;;;4993790;28;20208;-73
2022/08/19 03:16:00;;;;;;;14.73;10.00;;;23.20;99.90;;;;;;5003739;28;20634;-73
2022/08/19 03:18:26;;;;;;;11.07;9.15;;;23.30;99.90;;;;;;5004174;28;20631;-74
2022/08/19 03:20:54;;;;;;;12.18;9.57;;;23.20;99.90;;;;;;5009201;28;20200;-74
2022/08/19 03:23:23;;;;;;;11.50;8.57;;;23.20;99.90;;;;;;5002593;28;20331;-73
2022/08/19 03:25:52;;;;;;;13.20;9.85;;;23.10;99.90;;;;;;5004204;28;20652;-74
2022/08/19 03:28:19;;;;;;;13.23;9.60;;;23.10;99.90;;;;;;5002417;28;20239;-74
2022/08/19 03:30:57;;;;;;;11.50;9.23;;;23.20;99.90;;;;;;5004277;28;20571;-74
2022/08/19 03:33:26;;;;;;;13.45;9.98;;;23.20;99.90;;;;;;5012572;28;20209;-74
2022/08/19 03:36:08;;;;;;;11.48;9.60;;;23.10;99.90;;;;;;5009949;28;20218;-74
2022/08/19 03:38:37;;;;;;;13.40;9.18;;;23.20;99.90;;;;;;4992895;28;20716;-73
2022/08/19 03:41:07;;;;;;;14.10;9.25;;;23.10;99.90;;;;;;5005573;28;20218;-74
2022/08/19 03:43:35;;;;;;;10.95;8.77;;;23.20;99.90;;;;;;4992537;28;20212;-74
2022/08/19 03:46:04;;;;;;;10.45;8.88;;;23.20;99.90;;;;;;4992915;28;20212;-73
2022/08/19 03:48:32;;;;;;;10.70;8.73;;;23.30;99.90;;;;;;4992864;28;20613;-73
2022/08/19 03:50:59;;;;;;;10.02;9.02;;;23.20;99.90;;;;;;4996318;28;20567;-73
2022/08/19 03:53:27;;;;;;;10.60;9.32;;;23.20;99.90;;;;;;5007827;28;20254;-72
2022/08/19 03:55:56;;;;;;;12.40;9.18;;;23.10;99.90;;;;;;4992841;28;20212;-72
2022/08/19 03:58:23;;;;;;;12.38;8.98;;;23.20;99.90;;;;;;4994848;28;20235;-71
2022/08/19 04:00:50;;;;;;;12.30;8.32;;;23.30;99.90;;;;;;4993229;28;20637;-70
2022/08/19 04:03:19;;;;;;;12.00;9.05;;;23.30;99.90;;;;;;4997022;28;20211;-71
2022/08/19 04:05:47;;;;;;;11.23;8.93;;;23.30;99.90;;;;;;4991215;28;20212;-70
2022/08/19 04:08:17;;;;;;;11.48;9.05;;;23.40;99.90;;;;;;4996286;28;20274;-70
2022/08/19 04:10:44;;;;;;;12.95;9.90;;;23.40;99.90;;;;;;4998867;28;20661;-70
2022/08/19 04:13:12;;;;;;;10.60;9.25;;;23.50;99.90;;;;;;4997773;28;20216;-70
2022/08/19 04:15:41;;;;;;;9.15;8.20;;;23.60;99.90;;;;;;4990779;28;20219;-70
2022/08/19 04:18:09;;;;;;;11.85;8.63;;;23.60;99.90;;;;;;5006833;28;20231;-71
2022/08/19 04:20:44;;;;;;;11.07;8.75;;;23.60;99.90;;;;;;5033195;28;20218;-70
2022/08/19 04:23:11;;;;;;;11.77;8.85;;;23.60;99.90;;;;;;4992959;28;20242;-70
2022/08/19 04:25:40;;;;;;;11.73;8.80;;;23.70;99.90;;;;;;4993689;28;20215;-70
2022/08/19 04:28:09;;;;;;;10.88;9.27;;;23.70;99.90;;;;;;4999713;28;20212;-70
2022/08/19 04:30:42;;;;;;;10.27;8.60;;;23.80;99.90;;;;;;4999527;28;20211;-70
2022/08/19 04:33:09;;;;;;;11.65;9.32;;;23.80;99.90;;;;;;5005412;28;20207;-70
2022/08/19 04:35:38;;;;;;;11.68;8.85;;;23.80;99.90;;;;;;4995135;28;20212;-70
2022/08/19 04:38:05;;;;;;;11.98;8.90;;;23.90;99.90;;;;;;5004544;28;20716;-70
2022/08/19 04:43:16;;;;;;;11.63;9.10;;;24.10;99.90;;;;;;4995538;28;20210;-69
2022/08/19 04:45:45;;;;;;;10.05;8.85;;;24.10;99.90;;;;;;4992910;28;20240;-70
2022/08/19 04:48:12;;;;;;;10.20;8.77;;;24.30;99.90;;;;;;4991314;28;20553;-72
2022/08/19 04:50:42;;;;;;;14.38;8.57;;;24.30;99.90;;;;;;4991154;28;20223;-72
2022/08/19 04:53:09;;;;;;;12.00;8.35;;;24.40;99.90;;;;;;5004224;28;20214;-71
2022/08/19 04:55:40;;;;;;;18.70;8.45;;;24.40;99.90;;;;;;4998551;28;20215;-71
2022/08/19 04:58:06;;;;;;;16.30;9.52;;;24.50;99.90;;;;;;5005222;28;20318;-72
2022/08/19 05:00:33;;;;;;;11.27;8.38;;;24.60;99.90;;;;;;4995716;28;20215;-72
2022/08/19 05:03:02;;;;;;;12.60;7.85;;;24.60;99.90;;;;;;4993711;28;20579;-71
2022/08/19 05:05:28;;;;;;;8.93;7.60;;;24.70;99.90;;;;;;4990516;28;20557;-71
2022/08/19 05:07:55;;;;;;;11.18;7.53;;;24.80;99.90;;;;;;4990969;28;20222;-69
2022/08/19 05:10:22;;;;;;;13.50;8.07;;;24.80;99.90;;;;;;5004545;28;20577;-70
2022/08/19 05:12:49;;;;;;;8.88;7.97;;;24.80;99.90;;;;;;4999811;28;20207;-70
2022/08/19 05:15:15;;;;;;;10.05;7.60;;;24.80;99.90;;;;;;5006745;28;20219;-69
2022/08/19 05:22:31;;;;;;;10.88;7.15;;;24.80;99.90;;;;;;5003351;28;20326;-69
2022/08/19 05:23:15;;;;;;;11.25;8.00;;;24.80;99.90;;;;;;4995717;28;20223;-70
2022/08/19 05:25:42;;;;;;;10.90;7.30;;;24.80;99.90;;;;;;4996248;28;20207;-71
2022/08/19 05:28:09;;;;;;;8.32;7.53;;;24.80;99.90;;;;;;5003007;28;20266;-72
2022/08/19 05:30:36;;;;;;;10.38;7.68;;;24.90;99.90;;;;;;5002892;28;20207;-71
2022/08/19 05:33:03;;;;;;;10.63;7.60;;;24.80;99.90;;;;;;5005549;28;20211;-70
2022/08/19 05:35:31;;;;;;;10.05;8.13;;;24.90;99.90;;;;;;4999658;28;20223;-71
2022/08/19 05:37:58;;;;;;;10.55;7.50;;;24.90;99.90;;;;;;5000420;28;20714;-70
2022/08/19 05:40:25;;;;;;;10.90;8.07;;;24.90;99.90;;;;;;4994456;28;20207;-70
2022/08/19 05:42:53;;;;;;;14.07;8.43;;;25.00;99.90;;;;;;4994305;28;20236;-71
2022/08/19 05:45:21;;;;;;;10.27;7.82;;;25.10;99.90;;;;;;5010367;28;20665;-71
2022/08/19 05:47:48;;;;;;;14.02;7.97;;;25.20;99.90;;;;;;5002122;28;20208;-71
2022/08/19 05:50:17;;;;;;;15.15;8.35;;;25.30;99.90;;;;;;4995288;28;20204;-70
2022/08/19 05:52:45;;;;;;;12.10;7.20;;;25.30;99.90;;;;;;4996087;28;20262;-71
2022/08/19 05:55:12;;;;;;;8.90;7.78;;;25.30;99.90;;;;;;4994573;28;20266;-72
2022/08/19 05:57:39;;;;;;;12.23;7.25;;;25.40;99.90;;;;;;5002246;28;20605;-71
2022/08/19 06:00:09;;;;;;;10.75;7.63;;;25.50;99.90;;;;;;4994724;28;20200;-72
2022/08/19 06:02:36;;;;;;;13.80;8.88;;;25.50;99.90;;;;;;4997550;28;20235;-72
2022/08/19 06:05:06;;;;;;;11.68;7.78;;;25.50;99.90;;;;;;5000020;28;20207;-72
2022/08/19 06:07:33;;;;;;;12.90;8.05;;;25.50;99.90;;;;;;4993416;28;20227;-71
2022/08/19 06:10:01;;;;;;;10.38;6.97;;;25.60;99.90;;;;;;4996076;28;20565;-70
2022/08/19 06:12:31;;;;;;;10.65;7.85;;;25.60;99.90;;;;;;5006258;28;20295;-71
2022/08/19 06:14:58;;;;;;;13.02;7.82;;;25.70;99.90;;;;;;5011313;28;20664;-72
2022/08/19 06:17:25;;;;;;;11.85;7.53;;;25.80;99.90;;;;;;5011205;28;20213;-67
2022/08/19 06:19:52;;;;;;;10.18;7.22;;;26.00;99.90;;;;;;5008117;28;20208;-66
2022/08/19 06:22:19;;;;;;;10.70;7.20;;;26.10;99.90;;;;;;5009788;28;20234;-69
2022/08/19 06:24:46;;;;;;;12.85;7.50;;;26.20;99.90;;;;;;5007868;28;20207;-67
2022/08/19 06:27:15;;;;;;;10.65;7.63;;;26.30;99.90;;;;;;5008419;28;20207;-67
2022/08/19 06:29:43;;;;;;;13.35;7.35;;;26.40;99.90;;;;;;5010456;28;20211;-67
2022/08/19 06:32:10;;;;;;;9.60;7.25;;;26.50;99.90;;;;;;5010591;28;20204;-67
2022/08/19 06:34:37;;;;;;;8.77;7.38;;;26.60;99.90;;;;;;5000511;28;20243;-69
2022/08/19 06:37:05;;;;;;;12.77;7.10;;;26.60;99.90;;;;;;5003471;28;20728;-69
2022/08/19 06:39:34;;;;;;;12.25;7.53;;;26.60;99.90;;;;;;5011129;28;20223;-69
2022/08/19 06:42:05;;;;;;;10.98;7.35;;;26.90;99.90;;;;;;5011272;28;20211;-68
2022/08/19 06:44:36;;;;;;;12.93;8.38;;;26.90;99.90;;;;;;5007724;28;20257;-68
2022/08/19 06:47:04;;;;;;;10.10;7.60;;;27.00;99.90;;;;;;5009021;28;20675;-68
2022/08/19 06:49:32;;;;;;;9.82;7.25;;;27.10;99.90;;;;;;5009901;28;20200;-69
2022/08/19 06:51:59;;;;;;;12.05;6.95;;;27.00;99.90;;;;;;5000242;28;20203;-68
2022/08/19 06:54:28;;;;;;;10.27;6.93;;;27.20;99.90;;;;;;5010294;28;20219;-69
2022/08/19 06:56:55;;;;;;;10.45;7.15;;;27.10;99.90;;;;;;5009104;28;20239;-69
2022/08/19 06:59:26;;;;;;;8.70;7.07;;;27.20;99.90;;;;;;5012825;28;20230;-69
2022/08/19 07:01:57;;;;;;;8.00;7.18;;;27.20;99.90;;;;;;5005485;28;20294;-69
2022/08/19 07:04:31;;;;;;;7.80;7.00;;;27.30;99.90;;;;;;5010216;28;20195;-67
2022/08/19 07:06:59;;;;;;;9.38;6.95;;;27.30;99.90;;;;;;5001496;28;20608;-67
2022/08/19 07:09:27;;;;;;;10.23;6.97;;;27.40;99.90;;;;;;5005262;28;20680;-66
2022/08/19 07:11:55;;;;;;;9.75;7.50;;;27.30;99.90;;;;;;5012231;28;20203;-66
2022/08/19 07:14:24;;;;;;;12.43;8.18;;;27.30;99.90;;;;;;5013529;28;20609;-67
2022/08/19 07:16:54;;;;;;;10.45;7.90;;;27.20;99.90;;;;;;5012582;28;20293;-66
2022/08/19 07:19:24;;;;;;;11.18;7.38;;;27.20;99.90;;;;;;5008105;28;20273;-66
2022/08/19 07:21:52;;;;;;;11.20;6.90;;;27.10;99.90;;;;;;5012160;28;20231;-65
2022/08/19 07:24:20;;;;;;;14.82;7.65;;;27.20;99.90;;;;;;5012515;28;20226;-72
2022/08/19 07:26:47;;;;;;;10.68;7.38;;;27.20;99.90;;;;;;5010597;28;20207;-68
2022/08/19 07:29:14;;;;;;;13.32;7.68;;;27.40;99.90;;;;;;5012871;28;20207;-66
2022/08/19 07:31:41;;;;;;;7.85;7.00;;;27.40;99.90;;;;;;5012632;28;20294;-67
2022/08/19 07:34:10;;;;;;;13.85;7.10;;;27.50;99.90;;;;;;5011588;28;20211;-66
2022/08/19 07:36:41;;;;;;;11.60;7.25;;;27.60;99.90;;;;;;5009320;28;20236;-66
2022/08/19 07:39:10;;;;;;;9.80;7.05;;;27.60;99.90;;;;;;5009986;28;20696;-67
2022/08/19 07:41:38;;;;;;;10.65;7.57;;;27.70;99.90;;;;;;5003451;28;20234;-66
2022/08/19 07:44:07;;;;;;;10.73;6.93;;;27.80;99.90;;;;;;5013150;28;20261;-64
2022/08/19 07:46:34;;;;;;;11.43;7.40;;;27.90;99.90;;;;;;5010544;28;20343;-65
2022/08/19 07:49:03;;;;;;;9.98;6.97;;;28.00;99.90;;;;;;5007868;28;20207;-65
2022/08/19 07:51:30;;;;;;;8.30;6.65;;;28.10;99.90;;;;;;5007162;28;20243;-66
2022/08/19 07:53:58;;;;;;;9.00;6.15;;;28.20;99.90;;;;;;5013440;28;20230;-66
2022/08/19 07:56:25;;;;;;;8.50;6.55;;;28.30;99.90;;;;;;5011065;28;20207;-65
2022/08/19 07:58:53;;;;;;;9.40;7.40;;;28.50;99.90;;;;;;5004906;28;20211;-66
2022/08/19 08:01:22;;;;;;;14.25;7.13;;;28.50;99.90;;;;;;5005426;28;20210;-66
2022/08/19 08:09:23;;;;;;;12.20;7.10;;;28.50;99.90;;;;;;5004465;28;20247;-65
2022/08/19 08:11:53;;;;;;;11.15;7.05;;;28.60;99.90;;;;;;5005998;28;20212;-65
2022/08/19 08:14:24;;;;;;;10.27;7.20;;;28.60;99.90;;;;;;5003357;28;20575;-65
2022/08/19 08:16:52;;;;;;;10.50;6.30;;;28.70;99.90;;;;;;5011820;28;20811;-65
2022/08/19 08:19:20;;;;;;;7.82;7.07;;;28.70;99.90;;;;;;5004350;28;20285;-64
2022/08/19 08:21:48;;;;;;;10.90;6.85;;;28.70;99.90;;;;;;5009403;28;20227;-64
2022/08/19 08:24:15;;;;;;;10.68;6.90;;;28.80;99.90;;;;;;5009324;28;20659;-67
2022/08/19 08:26:44;;;;;;;9.45;6.57;;;28.80;99.90;;;;;;5001218;28;20683;-67
2022/08/19 08:29:12;;;;;;;9.48;6.97;;;28.90;99.90;;;;;;5006290;28;20238;-68
2022/08/19 08:31:39;;;;;;;9.43;6.50;;;29.00;99.90;;;;;;5002921;28;20207;-64
2022/08/19 08:34:06;;;;;;;12.02;7.07;;;29.10;99.90;;;;;;5000175;28;20531;-65
2022/08/19 08:36:33;;;;;;;9.13;7.07;;;29.20;99.90;;;;;;5006448;28;20204;-66
2022/08/19 08:39:00;;;;;;;9.35;7.25;;;29.40;99.90;;;;;;5008507;28;20726;-66
2022/08/19 08:41:33;;;;;;;6.68;6.07;;;29.40;99.90;;;;;;5005212;28;21269;-66
2022/08/19 08:44:04;;;;;;;14.75;7.75;;;29.50;99.90;;;;;;5008933;28;20569;-65
2022/08/19 08:46:37;;;;;;;12.07;6.60;;;29.50;99.90;;;;;;5005972;28;20235;-66
2022/08/19 08:49:16;;;;;;;7.75;6.78;;;29.60;99.90;;;;;;5010708;28;20610;-66
2022/08/19 08:51:47;;;;;;;9.82;6.45;;;29.70;99.90;;;;;;5011394;28;20386;-65
2022/08/19 08:54:18;;;;;;;9.50;6.95;;;29.80;99.90;;;;;;5010438;28;20227;-66
2022/08/19 08:56:46;;;;;;;12.15;7.00;;;29.90;99.90;;;;;;5010063;28;20589;-66
2022/08/19 08:59:21;;;;;;;12.15;6.65;;;29.90;99.90;;;;;;5005300;28;20215;-65
2022/08/19 09:01:48;;;;;;;9.45;6.80;;;30.00;99.90;;;;;;4998214;28;20221;-65
2022/08/19 09:04:15;;;;;;;10.18;7.00;;;30.10;99.90;;;;;;5003477;28;20254;-65
2022/08/19 09:06:54;;;;;;;10.27;6.88;;;30.30;99.90;;;;;;5009303;28;20223;-66
2022/08/19 09:09:32;;;;;;;8.45;6.10;;;30.50;99.90;;;;;;5009983;28;20510;-65
2022/08/19 09:12:06;;;;;;;10.80;7.40;;;30.70;99.80;;;;;;5005945;28;20549;-65
2022/08/19 09:14:41;;;;;;;9.60;7.35;;;30.80;99.30;;;;;;5008974;28;20206;-66
2022/08/19 09:17:08;;;;;;;9.68;6.35;;;31.00;99.10;;;;;;5012728;28;20211;-65
2022/08/19 09:19:36;;;;;;;6.95;5.90;;;31.10;97.90;;;;;;5011781;28;20254;-65
2022/08/19 09:22:03;;;;;;;10.35;6.43;;;31.00;97.50;;;;;;5012577;28;20296;-65
2022/08/19 09:24:30;;;;;;;8.85;6.40;;;31.00;97.40;;;;;;5009191;28;20222;-66
2022/08/19 09:26:56;;;;;;;8.18;5.88;;;31.20;96.30;;;;;;5015477;28;20622;-64
2022/08/19 09:29:24;;;;;;;8.45;5.88;;;31.30;96.60;;;;;;5003374;28;20210;-66
2022/08/19 09:31:53;;;;;;;7.45;5.55;;;31.50;96.00;;;;;;5010599;28;20211;-64
2022/08/19 09:34:20;;;;;;;6.35;5.38;;;31.80;94.90;;;;;;5012233;28;20207;-65
2022/08/19 09:36:46;;;;;;;7.55;5.60;;;32.00;94.00;;;;;;5004416;28;20231;-65
2022/08/19 09:39:13;;;;;;;7.70;5.57;;;32.10;93.20;;;;;;4999839;28;20200;-65
2022/08/19 09:41:40;;;;;;;8.98;5.75;;;32.20;92.60;;;;;;4996539;28;20197;-65
2022/08/19 09:44:07;;;;;;;8.25;5.75;;;32.40;92.50;;;;;;4996560;28;20568;-65
2022/08/19 09:46:33;;;;;;;7.00;5.40;;;32.50;91.90;;;;;;4992761;28;20219;-66
2022/08/19 09:49:01;;;;;;;10.07;5.40;;;32.70;91.50;;;;;;5001358;28;20208;-65
2022/08/19 09:51:29;;;;;;;15.23;5.30;;;32.90;91.50;;;;;;4991856;28;20207;-65
2022/08/19 09:53:59;;;;;;;7.30;5.30;;;33.10;90.80;;;;;;4998752;28;20215;-70
2022/08/19 09:56:26;;;;;;;6.28;5.40;;;33.30;90.00;;;;;;5002230;28;20243;-64
2022/08/19 09:58:53;;;;;;;11.32;5.57;;;33.50;89.30;;;;;;5009003;28;20239;-64
2022/08/19 10:01:22;;;;;;;10.45;5.97;;;33.70;88.20;;;;;;5002719;28;20393;-65
2022/08/19 10:03:50;;;;;;;9.02;5.43;;;33.90;86.70;;;;;;5010927;28;20214;-67
2022/08/19 10:06:22;;;;;;;6.00;5.30;;;34.00;86.10;;;;;;5001728;28;20612;-66
2022/08/19 10:08:49;;;;;;;12.65;5.40;;;34.10;85.00;;;;;;5004630;28;20200;-65
2022/08/19 10:11:17;;;;;;;7.70;5.80;;;34.10;84.60;;;;;;4993038;28;20216;-66
2022/08/19 10:13:45;;;;;;;7.45;5.88;;;34.30;84.70;;;;;;4996138;28;20208;-67
2022/08/19 10:16:14;;;;;;;6.65;5.75;;;34.30;83.50;;;;;;5006748;28;20236;-66
2022/08/19 10:18:43;;;;;;;10.77;5.63;;;34.40;83.30;;;;;;5005920;28;20214;-67
2022/08/19 10:21:13;;;;;;;5.57;4.93;;;34.50;83.60;;;;;;5009559;28;20207;-66
2022/08/19 10:23:45;;;;;;;7.80;5.53;;;34.60;81.80;;;;;;5001314;28;20211;-64
2022/08/19 10:26:14;;;;;;;10.43;5.70;;;34.70;80.50;;;;;;4999030;28;20274;-66
2022/08/19 10:28:41;;;;;;;6.78;5.18;;;34.80;78.80;;;;;;5009951;28;20218;-67
2022/08/19 10:31:09;;;;;;;7.95;5.13;;;34.80;78.00;;;;;;5010680;28;20203;-66
2022/08/19 10:33:37;;;;;;;6.85;5.43;;;34.80;78.00;;;;;;5009552;28;20214;-67
2022/08/19 10:36:07;;;;;;;8.27;5.68;;;34.80;78.10;;;;;;5010245;28;20207;-67
2022/08/19 10:38:34;;;;;;;9.77;5.22;;;35.00;77.20;;;;;;4997917;28;21031;-67
2022/08/19 10:41:09;;;;;;;8.90;5.07;;;35.20;75.40;;;;;;5007395;28;20585;-69
2022/08/19 10:43:38;;;;;;;6.15;5.03;;;35.30;73.90;;;;;;4994712;28;20203;-67
2022/08/19 10:46:05;;;;;;;5.88;5.05;;;35.50;73.30;;;;;;5008232;28;20710;-65
2022/08/19 10:48:32;;;;;;;6.82;5.13;;;35.50;72.40;;;;;;4993155;28;20556;-66
2022/08/19 10:53:43;;;;;;;8.68;5.28;;;35.60;71.50;;;;;;5005330;28;20194;-67
2022/08/19 10:58:56;;;;;;;8.48;5.43;;;35.50;72.40;;;;;;4998232;28;20204;-67
2022/08/19 11:01:23;;;;;;;7.50;5.25;;;35.60;70.90;;;;;;4993475;28;20207;-67
2022/08/19 11:03:50;;;;;;;6.20;4.80;;;35.70;68.80;;;;;;5008094;28;20204;-71
2022/08/19 11:06:17;;;;;;;6.32;5.13;;;35.80;68.00;;;;;;4994359;28;20207;-66
2022/08/19 11:08:44;;;;;;;10.45;4.90;;;35.90;67.90;;;;;;4992177;28;20207;-67
2022/08/19 11:11:13;;;;;;;7.57;5.15;;;36.00;67.80;;;;;;4993539;28;20722;-67
2022/08/19 11:13:42;;;;;;;8.57;4.97;;;36.00;67.00;;;;;;5005111;28;20214;-73
2022/08/19 11:16:13;;;;;;;6.95;4.90;;;36.10;67.30;;;;;;5001197;28;21589;-65
2022/08/19 11:18:42;;;;;;;11.73;5.30;;;36.10;67.40;;;;;;4995829;28;20216;-65
2022/08/19 11:21:12;;;;;;;7.82;5.50;;;36.10;66.90;;;;;;5006928;28;20262;-66
2022/08/19 11:23:40;;;;;;;15.85;6.18;;;36.10;66.70;;;;;;4995234;28;20208;-67
2022/08/19 11:26:07;;;;;;;12.35;5.32;;;36.10;65.70;;;;;;5006911;28;20219;-67
2022/08/19 11:28:35;;;;;;;6.68;5.45;;;36.00;66.00;;;;;;5003954;28;20215;-67
2022/08/19 11:31:03;;;;;;;5.53;4.65;;;35.90;65.60;;;;;;5006757;28;20674;-66
2022/08/19 11:33:30;;;;;;;9.13;5.90;;;35.90;65.40;;;;;;4997098;28;20216;-67
2022/08/19 11:35:59;;;;;;;7.90;5.50;;;35.80;66.20;;;;;;4997956;28;20215;-67
2022/08/19 11:38:26;;;;;;;10.30;5.43;;;35.90;65.80;;;;;;4998509;28;20208;-66
2022/08/19 11:40:57;;;;;;;6.57;4.97;;;36.10;65.80;;;;;;5003207;28;20250;-67
2022/08/19 11:43:26;;;;;;;7.13;5.32;;;36.30;65.50;;;;;;5000058;28;20212;-66
2022/08/19 11:45:55;;;;;;;7.20;5.70;;;36.50;64.70;;;;;;5009860;28;20302;-67
2022/08/19 11:48:22;;;;;;;8.10;4.57;;;36.40;65.10;;;;;;5004780;28;20219;-67
2022/08/19 11:50:50;;;;;;;10.07;5.70;;;36.40;64.10;;;;;;4998131;28;20208;-67
2022/08/19 11:53:19;;;;;;;10.88;5.90;;;36.30;64.50;;;;;;4999649;28;20602;-67
2022/08/19 11:55:46;;;;;;;9.20;5.50;;;36.30;64.10;;;;;;5006569;28;20578;-67
2022/08/19 11:58:13;;;;;;;11.77;5.28;;;36.30;64.30;;;;;;5010730;28;20235;-66
2022/08/19 12:00:41;;;;;;;5.97;4.63;;;36.30;63.20;;;;;;5003440;28;20246;-65
2022/08/19 12:03:09;;;;;;;5.63;4.97;;;36.40;63.00;;;;;;5007742;28;20211;-66
2022/08/19 12:05:38;;;;;;;9.82;4.90;;;36.50;63.00;;;;;;5008266;28;20560;-66
2022/08/19 12:08:05;;;;;;;13.48;5.28;;;36.50;62.80;;;;;;5008923;28;20211;-66
2022/08/19 12:10:33;;;;;;;7.07;5.45;;;36.40;61.90;;;;;;5000258;28;20212;-67
2022/08/19 12:13:00;;;;;;;8.98;5.45;;;36.30;61.90;;;;;;5008448;28;20203;-67
2022/08/19 12:15:28;;;;;;;5.70;5.18;;;36.10;62.60;;;;;;4996859;28;20299;-67
2022/08/19 12:17:56;;;;;;;7.32;5.15;;;35.80;62.80;;;;;;4998624;28;20576;-68
2022/08/19 12:20:26;;;;;;;9.70;4.80;;;35.70;63.40;;;;;;4999979;28;20609;-66
2022/08/19 12:22:53;;;;;;;9.77;4.90;;;35.70;63.30;;;;;;5002417;28;20297;-67
2022/08/19 12:25:20;;;;;;;10.77;4.70;;;35.60;63.00;;;;;;4994729;28;20208;-67
2022/08/19 12:27:47;;;;;;;10.25;4.93;;;35.70;62.90;;;;;;4994065;28;20213;-66
2022/08/19 12:30:14;;;;;;;7.88;4.88;;;35.70;63.00;;;;;;5003787;28;20234;-66
2022/08/19 12:32:41;;;;;;;10.57;5.35;;;35.60;63.80;;;;;;4995925;28;20199;-64
2022/08/19 12:35:11;;;;;;;9.93;4.85;;;35.60;64.40;;;;;;5003453;28;20207;-66
2022/08/19 12:37:44;;;;;;;8.15;4.63;;;35.50;63.60;;;;;;4994154;28;20212;-65
2022/08/19 12:40:12;;;;;;;7.30;5.57;;;35.40;61.80;;;;;;5001441;28;20240;-65
2022/08/19 12:42:41;;;;;;;7.25;5.20;;;35.30;63.00;;;;;;5001311;28;20211;-65
2022/08/19 12:45:09;;;;;;;6.95;5.10;;;35.30;63.60;;;;;;4996173;28;20200;-66
2022/08/19 12:47:36;;;;;;;10.07;5.30;;;35.40;64.00;;;;;;5001184;28;20330;-66
2022/08/19 12:50:04;;;;;;;8.95;5.00;;;35.50;64.20;;;;;;5000918;28;20210;-66
2022/08/19 12:52:31;;;;;;;10.05;4.60;;;35.50;63.20;;;;;;4999388;28;20222;-66
2022/08/19 12:54:59;;;;;;;5.82;4.43;;;35.40;63.00;;;;;;4995024;28;20215;-67
2022/08/19 12:57:32;;;;;;;8.25;5.40;;;35.30;62.50;;;;;;5002307;28;20239;-67
2022/08/19 13:00:00;;;;;;;7.63;4.97;;;35.30;62.60;;;;;;5002046;28;20226;-65
2022/08/19 13:02:27;;;;;;;7.80;5.25;;;35.40;63.30;;;;;;5000699;28;20242;-66